North Java, New York
Current Conditions -  °F | °C
As of 10:54 AM on Thursday 18 Dec 2014 (Local Time) from KBUF Reporting Station
Light Snow Light Snow  
Wind Chill: 23°   Ceiling: 1300
Heat Index: 31°   Visibility: 10mi
Dew Point: 27°   Wind: 8mph
Humidity: 85%   Direction: 260°W
Pressure: 30.09"   Gusts: NA
Location:  42.68°N, 78.34°W
Report Text: KBUF 181554Z 26007KT 10SM -SN FEW008 BKN013 OVC019 M01/M03 A3009 RMK AO2 SNB52 SLP198 CIG 011V015 PCPN VRY LGT P0000 T10061028
Loading
Personal Weather Stations






























Interactive Weather Map New forecast layout! Learn more

10-Day Weather Forecast

Advertisements
Track Severe Weather on mobile